createdAt,value
2018-03-11T00:01:51.402Z,64.60
2018-03-11T00:04:19.226Z,64.00
2018-03-11T00:06:47.909Z,64.00
2018-03-11T00:09:30.792Z,64.20
2018-03-11T00:11:58.964Z,64.10
2018-03-11T00:14:30.191Z,64.10
2018-03-11T00:16:57.824Z,64.50
2018-03-11T00:19:28.596Z,64.50
2018-03-11T00:21:57.349Z,65.00
2018-03-11T00:24:25.804Z,64.20
2018-03-11T00:26:54.166Z,64.40
2018-03-11T00:29:25.555Z,64.50
2018-03-11T00:31:55.300Z,64.10
2018-03-11T00:34:23.564Z,64.20
2018-03-11T00:36:51.694Z,64.10
2018-03-11T00:39:21.708Z,64.20
2018-03-11T00:41:49.704Z,65.20
2018-03-11T00:44:21.849Z,65.30
2018-03-11T00:46:49.579Z,65.00
2018-03-11T00:49:17.605Z,64.80
2018-03-11T00:51:50.658Z,64.70
2018-03-11T00:54:18.402Z,64.90
2018-03-11T00:56:49.284Z,64.70
2018-03-11T00:59:17.097Z,64.90
2018-03-11T01:01:45.087Z,64.90
2018-03-11T01:04:13.480Z,65.00
2018-03-11T01:06:41.889Z,64.90
2018-03-11T01:09:10.751Z,64.90
2018-03-11T01:11:38.898Z,64.90
2018-03-11T01:14:06.921Z,64.90
2018-03-11T01:16:35.269Z,64.80
2018-03-11T01:19:05.221Z,65.10
2018-03-11T01:21:33.988Z,64.90
2018-03-11T01:24:03.513Z,65.00
2018-03-11T01:26:31.760Z,64.90
2018-03-11T01:28:59.780Z,64.60
2018-03-11T01:31:28.154Z,64.60
2018-03-11T01:33:55.752Z,64.60
2018-03-11T01:36:36.292Z,65.20
2018-03-11T01:39:04.333Z,65.70
2018-03-11T01:41:32.838Z,65.20
2018-03-11T01:44:01.242Z,64.90
2018-03-11T01:46:30.074Z,64.80
2018-03-11T01:48:59.586Z,65.40
2018-03-11T01:51:28.044Z,65.00
2018-03-11T01:53:56.406Z,65.00
2018-03-11T01:56:24.980Z,65.30
2018-03-11T01:58:52.568Z,65.50
2018-03-11T02:01:22.085Z,65.50
2018-03-11T02:03:50.948Z,65.20
2018-03-11T02:06:19.487Z,64.50
2018-03-11T02:08:47.531Z,64.50
2018-03-11T02:11:20.665Z,65.10
2018-03-11T02:13:48.821Z,64.60
2018-03-11T02:16:16.809Z,64.60
2018-03-11T02:18:45.456Z,64.50
2018-03-11T02:21:14.353Z,64.30
2018-03-11T02:23:42.031Z,64.10
2018-03-11T02:26:10.850Z,64.00
2018-03-11T02:28:38.854Z,64.10
2018-03-11T02:31:07.621Z,64.30
2018-03-11T02:33:36.304Z,64.40
2018-03-11T02:36:04.034Z,63.90
2018-03-11T02:38:32.498Z,64.90
2018-03-11T02:41:00.547Z,64.20
2018-03-11T02:43:29.023Z,64.30
2018-03-11T02:45:57.452Z,65.00
2018-03-11T02:48:25.858Z,64.50
2018-03-11T02:50:54.842Z,64.70
2018-03-11T02:53:22.449Z,64.10
2018-03-11T02:55:50.849Z,64.90
2018-03-11T02:58:19.081Z,64.90
2018-03-11T03:00:47.510Z,64.00
2018-03-11T03:03:15.922Z,64.30
2018-03-11T03:05:44.017Z,64.40
2018-03-11T03:08:12.540Z,64.60
2018-03-11T03:10:40.964Z,64.60
2018-03-11T03:13:09.331Z,64.60
2018-03-11T03:15:38.911Z,64.50
2018-03-11T03:18:07.746Z,64.50
2018-03-11T03:20:35.893Z,64.30
2018-03-11T03:23:04.802Z,64.20
2018-03-11T03:25:33.507Z,64.50
2018-03-11T03:28:01.121Z,64.00
2018-03-11T03:30:29.495Z,64.20
2018-03-11T03:32:57.512Z,64.80
2018-03-11T03:35:25.900Z,63.70
2018-03-11T03:37:54.251Z,63.90
2018-03-11T03:40:22.775Z,63.60
2018-03-11T03:42:51.287Z,63.40
2018-03-11T03:45:19.551Z,63.80
2018-03-11T03:47:47.708Z,64.00
2018-03-11T03:50:16.479Z,63.70
2018-03-11T03:52:44.895Z,63.80
2018-03-11T03:55:13.971Z,63.90
2018-03-11T03:57:42.556Z,63.70
2018-03-11T04:00:11.435Z,63.70
2018-03-11T04:02:39.046Z,63.80
2018-03-11T04:05:07.562Z,64.70
2018-03-11T04:07:41.685Z,64.90
2018-03-11T04:10:10.078Z,65.60
2018-03-11T04:12:38.440Z,65.80
2018-03-11T04:15:07.143Z,65.50
2018-03-11T04:17:35.259Z,65.10
2018-03-11T04:20:03.273Z,65.10
2018-03-11T04:22:31.684Z,65.00
2018-03-11T04:25:00.838Z,65.80
2018-03-11T04:27:29.048Z,65.00
2018-03-11T04:29:56.873Z,63.70
2018-03-11T04:32:25.243Z,63.90
2018-03-11T04:34:53.917Z,64.90
2018-03-11T04:37:21.921Z,65.50
2018-03-11T04:39:50.736Z,65.50
2018-03-11T04:42:18.710Z,65.20
2018-03-11T04:44:47.130Z,65.00
2018-03-11T04:47:15.907Z,65.10
2018-03-11T04:49:44.921Z,64.80
2018-03-11T04:52:12.672Z,64.10
2018-03-11T04:54:40.760Z,65.50
2018-03-11T04:57:08.775Z,65.60
2018-03-11T04:59:37.451Z,65.40
2018-03-11T05:02:06.875Z,65.30
2018-03-11T05:04:35.374Z,64.80
2018-03-11T05:07:04.090Z,65.10
2018-03-11T05:09:32.449Z,65.00
2018-03-11T05:12:00.465Z,64.60
2018-03-11T05:14:29.019Z,64.30
2018-03-11T05:16:57.417Z,64.40
2018-03-11T05:19:25.481Z,64.50
2018-03-11T05:21:53.108Z,65.00
2018-03-11T05:24:21.505Z,65.20
2018-03-11T05:26:49.510Z,65.20
2018-03-11T05:29:21.393Z,65.20
2018-03-11T05:31:49.736Z,64.80
2018-03-11T05:34:17.337Z,64.40
2018-03-11T05:36:46.588Z,64.90
2018-03-11T05:39:14.401Z,64.20
2018-03-11T09:58:55.147Z,51.30
2018-03-11T10:01:23.950Z,50.90
2018-03-11T10:03:52.307Z,49.50
2018-03-11T10:06:21.223Z,49.70
2018-03-11T10:08:49.643Z,48.80
2018-03-11T10:11:18.456Z,48.60
2018-03-11T10:13:46.119Z,48.50
2018-03-11T10:16:14.580Z,48.20
2018-03-11T10:18:42.923Z,48.50
2018-03-11T10:21:12.256Z,49.70
2018-03-11T10:23:40.679Z,49.90
2018-03-11T10:26:10.816Z,49.10
2018-03-11T10:28:39.327Z,49.00
2018-03-11T10:31:07.788Z,47.50
2018-03-11T10:33:38.034Z,47.40
2018-03-11T10:36:07.788Z,47.90
2018-03-11T10:38:36.959Z,47.20
2018-03-11T10:41:05.393Z,47.90
2018-03-11T10:43:33.539Z,47.90
2018-03-11T10:46:02.284Z,48.80
2018-03-11T10:48:30.300Z,51.80
2018-03-11T10:50:58.723Z,52.80
2018-03-11T10:53:27.025Z,53.60
2018-03-11T10:55:55.389Z,54.40
2018-03-11T10:58:23.944Z,54.40
2018-03-11T11:00:53.105Z,55.10
2018-03-11T11:03:27.329Z,53.90
2018-03-11T11:05:55.733Z,54.50
2018-03-11T11:08:24.194Z,54.30
2018-03-11T11:10:52.555Z,54.80
2018-03-11T11:13:20.913Z,55.60
2018-03-11T11:15:49.390Z,55.50
2018-03-11T11:18:17.763Z,55.20
2018-03-11T11:20:45.842Z,55.20
2018-03-11T11:23:14.276Z,55.20
2018-03-11T11:25:43.377Z,55.30
2018-03-11T11:28:11.144Z,54.30
2018-03-11T11:30:39.116Z,54.80
2018-03-11T11:33:06.818Z,54.90
2018-03-11T11:35:34.797Z,55.30
2018-03-11T11:38:02.886Z,54.40
2018-03-11T11:40:32.141Z,53.20
2018-03-11T11:42:59.811Z,53.20
2018-03-11T11:45:28.163Z,53.40
2018-03-11T11:47:57.298Z,53.50
2018-03-11T11:50:24.878Z,51.20
2018-03-11T11:52:53.313Z,50.80
2018-03-11T11:55:21.302Z,50.10
2018-03-11T11:57:49.650Z,49.30
2018-03-11T12:00:18.231Z,49.80
2018-03-11T12:02:46.589Z,50.00
2018-03-11T12:05:15.185Z,49.70
2018-03-11T12:07:43.219Z,48.40
2018-03-11T12:10:11.567Z,47.40
2018-03-11T12:12:39.927Z,46.60
2018-03-11T12:15:08.549Z,45.50
2018-03-11T12:17:36.547Z,46.10
2018-03-11T12:20:04.950Z,46.10
2018-03-11T12:22:33.292Z,46.40
2018-03-11T12:25:01.891Z,46.50
2018-03-11T12:27:29.863Z,45.70
2018-03-11T12:29:57.537Z,45.60
2018-03-11T12:32:25.512Z,44.40
2018-03-11T12:34:54.620Z,44.90
2018-03-11T12:37:22.237Z,45.60
2018-03-11T12:39:50.649Z,46.10
2018-03-11T12:42:19.002Z,46.20
2018-03-11T12:44:47.414Z,45.90
2018-03-11T12:47:15.733Z,45.20
2018-03-11T12:49:44.188Z,45.50
2018-03-11T12:52:15.508Z,45.60
2018-03-11T12:54:43.166Z,44.20
2018-03-11T12:57:11.143Z,43.20
2018-03-11T12:59:38.741Z,42.20
2018-03-11T13:02:07.552Z,42.40
2018-03-11T13:04:35.540Z,42.80
2018-03-11T13:07:03.872Z,42.70
2018-03-11T13:09:32.231Z,43.10
2018-03-11T13:12:00.750Z,43.50
2018-03-11T13:14:28.903Z,43.60
2018-03-11T13:16:57.245Z,44.10
2018-03-11T13:19:25.662Z,43.90
2018-03-11T13:21:54.139Z,43.60
2018-03-11T13:24:22.092Z,43.90
2018-03-11T13:26:49.799Z,44.10
2018-03-11T13:29:17.788Z,44.00
2018-03-11T13:31:46.243Z,43.40
2018-03-11T13:34:25.975Z,43.20
2018-03-11T13:36:54.517Z,43.40
2018-03-11T13:39:34.378Z,43.40
2018-03-11T13:42:02.835Z,43.70
2018-03-11T13:44:32.176Z,44.30
2018-03-11T13:47:09.845Z,44.70
2018-03-11T13:49:37.875Z,45.50
2018-03-11T13:55:14.829Z,46.80
2018-03-11T14:00:53.206Z,46.80
2018-03-11T14:03:21.557Z,47.50
2018-03-11T14:05:49.154Z,47.40
2018-03-11T14:08:16.804Z,47.20
2018-03-11T14:10:44.396Z,46.80
2018-03-11T14:13:11.961Z,46.20
2018-03-11T14:15:39.563Z,46.60
2018-03-11T14:18:07.346Z,46.50
2018-03-11T14:20:41.790Z,46.60
2018-03-11T14:23:10.256Z,46.90
2018-03-11T14:25:38.615Z,47.60
2018-03-11T14:28:06.352Z,46.20
2018-03-11T14:30:34.009Z,46.70
2018-03-11T14:33:01.654Z,46.30
2018-03-11T14:35:29.409Z,46.50
2018-03-11T14:37:57.117Z,46.60
2018-03-11T14:40:24.810Z,47.10
2018-03-11T14:42:53.152Z,47.80
2018-03-11T14:45:20.844Z,47.70
2018-03-11T14:47:48.494Z,48.20
2018-03-11T14:50:16.905Z,48.90
2018-03-11T14:52:51.440Z,48.80
2018-03-11T14:55:19.049Z,48.80
2018-03-11T14:57:46.653Z,49.30
2018-03-11T15:00:14.280Z,49.40
2018-03-11T15:02:41.909Z,49.80
2018-03-11T15:05:09.905Z,50.40
2018-03-11T15:07:37.580Z,49.80
2018-03-11T15:10:05.970Z,50.80
2018-03-11T15:12:34.347Z,51.00
2018-03-11T15:15:02.693Z,50.40
2018-03-11T15:17:30.613Z,50.40
2018-03-11T15:19:58.342Z,50.90
2018-03-11T15:22:25.950Z,50.70
2018-03-11T15:24:53.527Z,50.70
2018-03-11T15:27:21.529Z,50.70
2018-03-11T15:29:49.127Z,50.80
2018-03-11T15:32:17.333Z,50.90
2018-03-11T15:34:44.951Z,50.70
2018-03-11T15:37:16.992Z,50.90
2018-03-11T15:39:44.777Z,50.90
2018-03-11T15:42:13.289Z,50.50
2018-03-11T15:44:41.618Z,50.50
2018-03-11T15:47:09.656Z,50.90
2018-03-11T15:49:38.037Z,50.90
2018-03-11T15:52:05.910Z,50.70
2018-03-11T15:54:34.486Z,50.50
2018-03-11T15:57:02.190Z,50.50
2018-03-11T15:59:29.783Z,50.80
2018-03-11T16:01:57.554Z,51.30
2018-03-11T16:04:25.550Z,51.70
2018-03-11T16:06:53.199Z,51.80
2018-03-11T16:09:20.780Z,51.80
2018-03-11T16:11:49.937Z,52.00
2018-03-11T16:14:17.583Z,52.90
2018-03-11T16:16:45.349Z,53.30
2018-03-11T16:19:13.000Z,53.10
2018-03-11T16:21:41.423Z,52.90
2018-03-11T16:24:09.841Z,53.30
2018-03-11T16:26:37.499Z,53.20
2018-03-11T16:29:05.081Z,53.80
2018-03-11T16:31:32.679Z,54.10
2018-03-11T16:34:01.136Z,54.30
2018-03-11T16:36:28.734Z,54.30
2018-03-11T16:38:56.397Z,55.20
2018-03-11T16:41:25.862Z,55.10
2018-03-11T16:43:54.493Z,56.00
2018-03-11T16:46:22.229Z,56.10
2018-03-11T16:48:50.617Z,57.30
2018-03-11T16:51:20.252Z,57.10
2018-03-11T16:53:48.916Z,57.50
2018-03-11T16:56:16.502Z,58.00
2018-03-11T16:58:44.104Z,59.10
2018-03-11T17:01:11.926Z,60.00
2018-03-11T17:03:39.680Z,61.40
2018-03-11T17:06:07.830Z,62.00
2018-03-11T17:08:36.215Z,61.80
2018-03-11T17:11:04.596Z,62.80
2018-03-11T17:13:34.427Z,62.40
2018-03-11T17:16:02.024Z,63.00
2018-03-11T17:18:29.738Z,63.60
2018-03-11T17:20:57.880Z,64.20
2018-03-11T17:23:27.677Z,64.60
2018-03-11T17:25:56.165Z,64.50
2018-03-11T17:28:24.510Z,64.40
2018-03-11T17:30:52.605Z,64.20
2018-03-11T17:33:20.259Z,65.00
2018-03-11T17:35:47.904Z,65.20
2018-03-11T17:38:15.612Z,65.00
2018-03-11T17:40:44.097Z,66.20
2018-03-11T17:43:12.474Z,66.50
2018-03-11T17:45:41.140Z,66.70
2018-03-11T17:48:08.795Z,66.30
2018-03-11T17:50:36.654Z,66.30
2018-03-11T17:53:05.542Z,66.80
2018-03-11T17:55:36.432Z,67.10
2018-03-11T17:58:04.049Z,67.10
2018-03-11T18:00:31.640Z,66.80
2018-03-11T18:02:59.973Z,67.30
2018-03-11T18:05:28.054Z,67.20
2018-03-11T18:07:55.697Z,67.30
2018-03-11T18:10:23.312Z,67.70
2018-03-11T18:12:51.669Z,68.40
2018-03-11T18:15:32.878Z,68.20
2018-03-11T18:18:00.871Z,68.50
2018-03-11T18:20:28.619Z,68.90
2018-03-11T18:22:57.349Z,68.70
2018-03-11T18:25:25.731Z,69.20
2018-03-11T18:27:53.312Z,68.30
2018-03-11T18:30:20.904Z,68.60
2018-03-11T18:32:48.771Z,68.60
2018-03-11T18:35:16.868Z,69.20
2018-03-11T18:37:45.959Z,70.00
2018-03-11T18:40:14.369Z,69.60
2018-03-11T18:42:42.298Z,69.70
2018-03-11T18:45:11.024Z,69.90
2018-03-11T18:47:38.721Z,69.90
2018-03-11T18:50:08.726Z,69.90
2018-03-11T18:52:36.580Z,70.10
2018-03-11T18:55:04.368Z,70.20
2018-03-11T18:57:32.176Z,70.30
2018-03-11T19:00:00.673Z,69.70
2018-03-11T19:02:28.249Z,69.40
2018-03-11T19:04:56.647Z,69.70
2018-03-11T19:07:25.082Z,69.30
2018-03-11T19:09:53.183Z,69.20
2018-03-11T19:12:20.945Z,69.30
2018-03-11T19:14:49.461Z,69.90
2018-03-11T19:17:17.108Z,69.20
2018-03-11T19:19:44.702Z,69.30
2018-03-11T19:22:12.673Z,69.40
2018-03-11T19:24:40.444Z,69.40
2018-03-11T19:27:08.067Z,69.40
2018-03-11T19:29:36.075Z,69.50
2018-03-11T19:32:04.772Z,69.50
2018-03-11T19:34:33.179Z,69.90
2018-03-11T19:37:00.788Z,69.90
2018-03-11T19:39:29.132Z,70.40
2018-03-11T19:41:57.785Z,70.30
2018-03-11T19:44:27.468Z,70.10
2018-03-11T19:46:55.515Z,70.40
2018-03-11T19:49:23.904Z,70.50
2018-03-11T19:51:51.497Z,70.60
2018-03-11T19:54:19.093Z,70.40
2018-03-11T19:56:46.720Z,70.10
2018-03-11T19:59:15.655Z,70.80
2018-03-11T20:01:43.284Z,70.50
2018-03-11T20:04:10.850Z,70.40
2018-03-11T20:06:39.269Z,70.10
2018-03-11T20:09:08.879Z,70.10
2018-03-11T20:11:36.531Z,71.30
2018-03-11T20:14:04.861Z,72.50
2018-03-11T20:16:33.550Z,70.10
2018-03-11T20:19:01.911Z,72.20
2018-03-11T20:21:30.291Z,72.10
2018-03-11T20:23:58.409Z,71.90
2018-03-11T20:26:26.813Z,72.10
2018-03-11T20:28:55.316Z,72.20
2018-03-11T20:31:23.001Z,71.50
2018-03-11T20:33:50.959Z,71.00
2018-03-11T20:36:29.451Z,70.60
2018-03-11T20:38:59.137Z,70.10
2018-03-11T20:41:27.494Z,70.80
2018-03-11T20:43:56.669Z,71.30
2018-03-11T20:46:24.266Z,70.90
2018-03-11T20:48:52.645Z,70.90
2018-03-11T20:51:20.720Z,70.80
2018-03-11T20:53:48.401Z,71.40
2018-03-11T20:56:16.405Z,72.20
2018-03-11T20:58:44.926Z,73.10
2018-03-11T21:01:13.286Z,72.80
2018-03-11T21:03:42.645Z,73.80
2018-03-11T21:06:10.281Z,72.30
2018-03-11T21:08:38.467Z,71.80
2018-03-11T21:11:07.474Z,71.50
2018-03-11T21:13:35.072Z,71.10
2018-03-11T21:16:03.458Z,71.30
2018-03-11T21:18:31.861Z,71.40
2018-03-11T21:21:00.372Z,71.40
2018-03-11T21:23:28.139Z,70.60
2018-03-11T21:25:55.724Z,70.70
2018-03-11T21:28:23.497Z,70.90
2018-03-11T21:30:51.076Z,71.50
2018-03-11T21:33:19.219Z,71.70
2018-03-11T21:35:47.076Z,71.40
2018-03-11T21:38:14.831Z,71.00
2018-03-11T21:40:42.437Z,70.30
2018-03-11T21:43:10.073Z,70.00
2018-03-11T21:45:38.076Z,69.90
2018-03-11T21:48:06.588Z,70.50
2018-03-11T21:50:34.194Z,69.80
2018-03-11T21:53:01.826Z,69.60
2018-03-11T21:55:29.441Z,69.60
2018-03-11T21:57:57.463Z,69.80
2018-03-11T22:00:25.154Z,69.90
2018-03-11T22:02:52.787Z,69.90
2018-03-11T22:05:20.426Z,70.10
2018-03-11T22:07:48.063Z,69.80
2018-03-11T22:10:15.682Z,70.00
2018-03-11T22:12:43.310Z,70.10
2018-03-11T22:15:10.917Z,70.10
2018-03-11T22:17:38.539Z,70.40
2018-03-11T22:20:06.157Z,70.50
2018-03-11T22:22:34.620Z,70.90
2018-03-11T22:25:02.651Z,69.80
2018-03-11T22:27:30.290Z,69.80
2018-03-11T22:29:57.926Z,70.20
2018-03-11T22:32:26.461Z,69.70
2018-03-11T22:34:54.466Z,69.90
2018-03-11T22:37:22.072Z,70.10
2018-03-11T22:39:50.078Z,71.10
2018-03-11T22:42:18.775Z,70.90
2018-03-11T22:44:46.850Z,70.80
2018-03-11T22:47:15.381Z,70.80
2018-03-11T22:49:43.037Z,70.30
2018-03-11T22:52:10.646Z,70.00
2018-03-11T22:54:39.528Z,70.00
2018-03-11T22:57:07.173Z,69.70
2018-03-11T22:59:34.785Z,69.80
2018-03-11T23:02:03.171Z,71.00
2018-03-11T23:04:31.192Z,70.10
2018-03-11T23:06:59.161Z,70.10
2018-03-11T23:09:26.782Z,70.10
2018-03-11T23:11:55.239Z,70.40
2018-03-11T23:14:22.978Z,69.90
2018-03-11T23:16:50.697Z,70.00
2018-03-11T23:19:22.259Z,70.20
2018-03-11T23:21:49.921Z,70.20
2018-03-11T23:24:17.976Z,69.80
2018-03-11T23:26:46.375Z,69.90
2018-03-11T23:29:14.723Z,69.70
2018-03-11T23:31:43.286Z,70.30
2018-03-11T23:34:11.668Z,69.70
2018-03-11T23:36:39.323Z,69.70
2018-03-11T23:39:07.755Z,70.00
2018-03-11T23:41:35.463Z,69.80
2018-03-11T23:44:04.620Z,70.10
2018-03-11T23:46:33.258Z,69.70
2018-03-11T23:49:01.676Z,70.00
2018-03-11T23:51:30.058Z,69.90
2018-03-11T23:53:57.686Z,70.30
2018-03-11T23:56:25.670Z,70.60
2018-03-11T23:58:53.459Z,70.50
